Time;durP1;ratioP1;P1;durP2;ratioP2;P2;SDS_P1;SDS_P2;PMS_P1;PMS_P2;Temp;Humidity;BMP_temperature;BMP_pressure;BME280_temperature;BME280_humidity;BME280_pressure;Samples;Min_cycle;Max_cycle;Signal;HPM_P1;HPM_P2
2022/12/24 00:00:39;;;;;;;6.33;0.80;;;;;;;;;;5035463;28;20196;-67
2022/12/24 00:03:06;;;;;;;5.53;0.90;;;;;;;;;;5049225;28;20207;-66
2022/12/24 00:05:35;;;;;;;6.07;1.40;;;;;;;;;;5033270;28;20671;-67
2022/12/24 00:08:04;;;;;;;2.83;1.10;;;;;;;;;;5031976;28;20259;-67
2022/12/24 00:10:31;;;;;;;1.63;1.00;;;;;;;;;;5038194;28;20235;-68
2022/12/24 00:12:58;;;;;;;1.90;0.60;;;;;;;;;;5050988;28;20219;-67
2022/12/24 00:15:25;;;;;;;1.33;0.67;;;;;;;;;;5050154;28;20223;-68
2022/12/24 00:17:52;;;;;;;2.50;0.67;;;;;;;;;;5044376;28;20208;-68
2022/12/24 00:20:19;;;;;;;2.83;0.50;;;;;;;;;;5033286;28;20204;-67
2022/12/24 00:22:47;;;;;;;5.30;0.70;;;;;;;;;;5031020;28;20656;-68
2022/12/24 00:25:14;;;;;;;1.43;0.90;;;;;;;;;;5042565;28;20207;-68
2022/12/24 00:27:41;;;;;;;4.00;0.80;;;;;;;;;;5046826;28;20649;-65
2022/12/24 00:30:09;;;;;;;0.90;0.50;;;;;;;;;;5038074;28;20229;-67
2022/12/24 00:32:37;;;;;;;7.97;0.70;;;;;;;;;;5044578;28;20626;-67
2022/12/24 00:35:04;;;;;;;1.33;0.57;;;;;;;;;;5030154;28;20201;-65
2022/12/24 00:37:31;;;;;;;3.10;0.80;;;;;;;;;;5036650;28;20212;-66
2022/12/24 00:40:00;;;;;;;4.40;0.70;;;;;;;;;;5044622;28;20208;-65
2022/12/24 00:42:27;;;;;;;2.97;0.50;;;;;;;;;;5041979;28;20228;-66
2022/12/24 00:44:54;;;;;;;3.63;0.67;;;;;;;;;;5030102;28;20317;-66
2022/12/24 00:47:21;;;;;;;0.90;0.33;;;;;;;;;;5034986;28;20199;-66
2022/12/24 00:49:48;;;;;;;2.77;0.70;;;;;;;;;;5034552;28;20659;-66
2022/12/24 00:52:15;;;;;;;1.20;0.37;;;;;;;;;;5045013;28;20425;-66
2022/12/24 00:54:42;;;;;;;1.90;0.50;;;;;;;;;;5029849;28;20212;-66
2022/12/24 00:57:10;;;;;;;3.73;0.67;;;;;;;;;;5033081;28;20228;-65
2022/12/24 00:59:37;;;;;;;4.73;0.70;;;;;;;;;;5046807;28;20659;-65
2022/12/24 01:02:04;;;;;;;4.00;0.30;;;;;;;;;;5032367;28;20212;-65
2022/12/24 01:07:16;;;;;;;4.10;0.53;;;;;;;;;;5036071;28;20215;-66
2022/12/24 01:09:43;;;;;;;4.80;0.80;;;;;;;;;;5028591;28;20238;-66
2022/12/24 01:12:12;;;;;;;2.03;0.80;;;;;;;;;;5046100;28;20264;-66
2022/12/24 01:14:39;;;;;;;1.37;0.47;;;;;;;;;;5047012;28;20689;-65
2022/12/24 01:17:06;;;;;;;3.83;1.00;;;;;;;;;;5040691;28;20278;-66
2022/12/24 01:19:33;;;;;;;2.77;0.53;;;;;;;;;;5036078;28;20223;-66
2022/12/24 01:22:01;;;;;;;1.67;0.47;;;;;;;;;;5043099;28;20227;-65
2022/12/24 01:24:28;;;;;;;3.17;0.60;;;;;;;;;;5042463;28;20454;-67
2022/12/24 01:26:55;;;;;;;1.17;0.93;;;;;;;;;;5049038;28;20617;-66
2022/12/24 01:29:23;;;;;;;3.13;0.70;;;;;;;;;;5030120;28;20204;-66
2022/12/24 01:31:50;;;;;;;0.77;0.40;;;;;;;;;;5029232;28;20414;-65
2022/12/24 01:34:17;;;;;;;3.73;0.60;;;;;;;;;;5045773;28;20670;-66
2022/12/24 01:36:44;;;;;;;2.07;0.77;;;;;;;;;;5045163;28;20221;-66
2022/12/24 01:39:11;;;;;;;5.33;0.70;;;;;;;;;;5029352;28;20728;-67
2022/12/24 01:44:26;;;;;;;0.40;0.40;;;;;;;;;;5035643;28;20211;-66
2022/12/24 01:46:54;;;;;;;4.73;0.80;;;;;;;;;;5034789;28;20211;-66
2022/12/24 01:49:21;;;;;;;2.37;1.00;;;;;;;;;;5029207;28;20271;-66
2022/12/24 01:51:49;;;;;;;0.87;0.67;;;;;;;;;;5029315;28;20266;-66
2022/12/24 01:54:21;;;;;;;2.10;0.30;;;;;;;;;;5046851;28;20613;-66
2022/12/24 01:56:50;;;;;;;3.43;0.70;;;;;;;;;;5042155;28;20239;-67
2022/12/24 01:59:18;;;;;;;1.23;0.53;;;;;;;;;;5047889;28;20199;-66
2022/12/24 02:01:46;;;;;;;2.37;0.40;;;;;;;;;;5034389;28;20240;-67
2022/12/24 02:04:26;;;;;;;2.50;0.50;;;;;;;;;;5047400;28;20294;-67
2022/12/24 02:06:53;;;;;;;4.20;1.10;;;;;;;;;;5037610;28;20203;-66
2022/12/24 02:09:20;;;;;;;5.80;0.60;;;;;;;;;;5036665;28;20297;-67
2022/12/24 02:14:51;;;;;;;2.17;0.50;;;;;;;;;;5032101;28;20190;-67
2022/12/24 02:17:23;;;;;;;4.43;0.63;;;;;;;;;;5028995;28;20232;-67
2022/12/24 02:20:17;;;;;;;5.27;0.70;;;;;;;;;;5028786;28;20736;-67
2022/12/24 02:22:53;;;;;;;3.07;0.53;;;;;;;;;;4984617;28;20208;-67
2022/12/24 02:25:34;;;;;;;8.00;0.80;;;;;;;;;;5039640;28;20218;-67
2022/12/24 02:28:06;;;;;;;3.30;0.60;;;;;;;;;;5040369;28;20262;-67
2022/12/24 02:30:39;;;;;;;1.57;0.70;;;;;;;;;;5038462;28;20234;-66
2022/12/24 02:33:18;;;;;;;1.53;0.50;;;;;;;;;;5045098;28;20204;-66
2022/12/24 02:35:49;;;;;;;2.03;0.70;;;;;;;;;;5032806;28;20620;-67
2022/12/24 02:38:20;;;;;;;0.90;0.43;;;;;;;;;;5033725;28;20217;-66
2022/12/24 02:40:50;;;;;;;1.83;0.57;;;;;;;;;;5032556;28;20212;-66
2022/12/24 02:43:18;;;;;;;1.40;0.67;;;;;;;;;;5043184;28;20235;-66
2022/12/24 02:45:48;;;;;;;0.57;0.50;;;;;;;;;;5039376;28;20255;-66
2022/12/24 02:48:17;;;;;;;4.30;1.00;;;;;;;;;;5033833;28;20203;-66
2022/12/24 02:50:55;;;;;;;1.00;0.70;;;;;;;;;;5034832;28;20215;-67
2022/12/24 02:53:22;;;;;;;1.73;0.50;;;;;;;;;;5032850;28;20211;-67
2022/12/24 02:55:55;;;;;;;3.43;0.70;;;;;;;;;;5044416;28;20261;-66
2022/12/24 02:58:27;;;;;;;0.87;0.50;;;;;;;;;;5042030;28;20205;-66
2022/12/24 03:01:15;;;;;;;3.60;0.77;;;;;;;;;;5039774;28;20266;-67
2022/12/24 03:03:48;;;;;;;1.23;0.83;;;;;;;;;;5032084;28;20212;-66
2022/12/24 03:06:17;;;;;;;7.47;0.90;;;;;;;;;;5039535;28;20208;-67
2022/12/24 03:08:45;;;;;;;3.87;1.00;;;;;;;;;;5042879;28;20210;-67
2022/12/24 03:11:14;;;;;;;1.47;0.57;;;;;;;;;;5047801;28;20239;-67
2022/12/24 03:13:41;;;;;;;2.73;0.50;;;;;;;;;;5050243;28;20208;-66
2022/12/24 03:16:12;;;;;;;2.93;0.77;;;;;;;;;;5037927;28;20721;-66
2022/12/24 03:18:41;;;;;;;4.63;0.80;;;;;;;;;;5034500;28;20595;-67
2022/12/24 03:21:10;;;;;;;1.40;0.60;;;;;;;;;;5034865;28;20211;-67
2022/12/24 03:23:37;;;;;;;1.17;0.70;;;;;;;;;;5050481;28;20211;-67
2022/12/24 03:26:06;;;;;;;3.70;0.43;;;;;;;;;;5049351;28;20230;-66
2022/12/24 03:28:33;;;;;;;3.67;0.60;;;;;;;;;;5047943;28;20593;-67
2022/12/24 03:31:01;;;;;;;1.43;0.37;;;;;;;;;;5032596;28;20208;-67
2022/12/24 03:33:30;;;;;;;5.03;0.63;;;;;;;;;;5032920;28;20208;-67
2022/12/24 03:35:57;;;;;;;3.50;0.40;;;;;;;;;;5035525;28;20204;-66
2022/12/24 03:38:24;;;;;;;6.77;0.60;;;;;;;;;;5030344;28;20227;-66
2022/12/24 03:40:51;;;;;;;2.20;0.67;;;;;;;;;;5050417;28;20578;-67
2022/12/24 03:43:18;;;;;;;4.43;0.67;;;;;;;;;;5044757;28;20209;-66
2022/12/24 03:45:45;;;;;;;0.87;0.70;;;;;;;;;;5039206;28;20203;-67
2022/12/24 03:48:12;;;;;;;3.30;1.03;;;;;;;;;;5046262;28;20208;-67
2022/12/24 03:50:41;;;;;;;3.90;0.60;;;;;;;;;;5033038;28;20548;-67
2022/12/24 03:53:08;;;;;;;6.00;0.80;;;;;;;;;;5032201;28;20219;-67
2022/12/24 03:55:35;;;;;;;7.87;0.77;;;;;;;;;;5034068;28;20237;-67
2022/12/24 03:58:02;;;;;;;1.03;0.83;;;;;;;;;;5041152;28;20232;-68
2022/12/24 04:00:29;;;;;;;5.30;0.63;;;;;;;;;;5039195;28;20262;-67
2022/12/24 04:02:56;;;;;;;3.10;0.63;;;;;;;;;;5044638;28;20212;-67
2022/12/24 04:05:23;;;;;;;0.30;0.30;;;;;;;;;;5036701;28;20214;-67
2022/12/24 04:07:52;;;;;;;6.53;0.80;;;;;;;;;;5045961;28;20205;-67
2022/12/24 04:10:19;;;;;;;6.47;0.87;;;;;;;;;;5034633;28;20236;-67
2022/12/24 04:12:46;;;;;;;3.67;0.50;;;;;;;;;;5045848;28;20200;-67
2022/12/24 04:15:13;;;;;;;2.53;0.57;;;;;;;;;;5043586;28;20673;-67
2022/12/24 04:17:40;;;;;;;2.27;0.63;;;;;;;;;;5044620;28;20230;-67
2022/12/24 04:20:07;;;;;;;6.67;0.83;;;;;;;;;;5038894;28;20235;-66
2022/12/24 04:22:34;;;;;;;2.10;0.70;;;;;;;;;;5047752;28;20206;-67
2022/12/24 04:25:03;;;;;;;0.70;0.40;;;;;;;;;;5043635;28;20208;-67
2022/12/24 04:27:30;;;;;;;3.20;0.57;;;;;;;;;;5034073;28;20865;-67
2022/12/24 04:29:57;;;;;;;4.73;1.00;;;;;;;;;;5036731;28;20215;-67
2022/12/24 04:32:25;;;;;;;1.93;0.60;;;;;;;;;;5032236;28;20216;-67
2022/12/24 04:34:52;;;;;;;6.77;0.70;;;;;;;;;;5043022;28;20302;-67
2022/12/24 04:37:19;;;;;;;2.10;0.50;;;;;;;;;;5031862;28;20651;-67
2022/12/24 04:39:46;;;;;;;2.90;0.40;;;;;;;;;;5041697;28;20208;-68
2022/12/24 04:42:15;;;;;;;3.20;0.90;;;;;;;;;;5031261;28;20209;-67
2022/12/24 04:44:42;;;;;;;1.67;0.53;;;;;;;;;;5028944;28;20934;-67
2022/12/24 04:47:09;;;;;;;5.23;1.17;;;;;;;;;;5034545;28;20204;-67
2022/12/24 04:49:36;;;;;;;2.03;0.50;;;;;;;;;;5034892;28;20200;-67
2022/12/24 04:52:03;;;;;;;3.80;0.70;;;;;;;;;;5049263;28;20230;-67
2022/12/24 04:54:30;;;;;;;1.30;0.43;;;;;;;;;;5032403;28;20258;-67
2022/12/24 04:56:57;;;;;;;1.67;0.77;;;;;;;;;;5031156;28;20247;-67
2022/12/24 04:59:26;;;;;;;5.80;0.73;;;;;;;;;;5034731;28;20266;-67
2022/12/24 05:01:53;;;;;;;6.30;0.83;;;;;;;;;;5031210;28;20211;-67
2022/12/24 05:04:20;;;;;;;3.10;0.90;;;;;;;;;;5043405;28;20866;-67
2022/12/24 05:06:47;;;;;;;4.03;0.80;;;;;;;;;;5042496;28;20212;-67
2022/12/24 05:09:14;;;;;;;3.50;0.60;;;;;;;;;;5042542;28;20210;-67
2022/12/24 05:11:41;;;;;;;0.30;0.30;;;;;;;;;;5039040;28;20773;-67
2022/12/24 05:14:08;;;;;;;3.67;0.60;;;;;;;;;;5030661;28;20215;-66
2022/12/24 05:16:37;;;;;;;0.43;0.43;;;;;;;;;;5045198;28;20212;-67
2022/12/24 05:19:04;;;;;;;1.37;0.80;;;;;;;;;;5040390;28;20205;-67
2022/12/24 05:21:31;;;;;;;3.20;0.47;;;;;;;;;;5037967;28;20226;-67
2022/12/24 05:26:44;;;;;;;2.33;0.47;;;;;;;;;;5030514;28;20594;-68
2022/12/24 05:29:12;;;;;;;2.80;0.63;;;;;;;;;;5029438;28;20303;-67
2022/12/24 05:31:41;;;;;;;1.70;0.47;;;;;;;;;;5030581;28;20216;-67
2022/12/24 05:34:08;;;;;;;0.37;0.37;;;;;;;;;;5033853;28;20208;-69
2022/12/24 05:36:35;;;;;;;4.80;0.57;;;;;;;;;;5033671;28;20204;-67
2022/12/24 05:39:02;;;;;;;10.43;0.80;;;;;;;;;;5049468;28;20212;-67
2022/12/24 05:41:29;;;;;;;3.53;0.50;;;;;;;;;;5033940;28;20212;-67
2022/12/24 05:43:56;;;;;;;1.17;0.90;;;;;;;;;;5030222;28;20219;-67
2022/12/24 05:46:24;;;;;;;3.10;0.50;;;;;;;;;;5029262;28;20214;-67
2022/12/24 05:48:53;;;;;;;1.93;0.50;;;;;;;;;;5042087;28;20227;-67
2022/12/24 05:51:23;;;;;;;1.33;0.53;;;;;;;;;;5029689;28;20486;-66
2022/12/24 05:53:51;;;;;;;1.07;0.50;;;;;;;;;;5037114;28;20223;-67
2022/12/24 05:56:20;;;;;;;1.73;0.70;;;;;;;;;;5034530;28;20646;-67
2022/12/24 05:58:47;;;;;;;1.47;0.47;;;;;;;;;;5030255;28;20228;-67
2022/12/24 06:01:14;;;;;;;8.03;0.90;;;;;;;;;;5038300;28;20619;-67
2022/12/24 06:03:41;;;;;;;4.73;0.80;;;;;;;;;;5039614;28;20204;-67
2022/12/24 06:06:10;;;;;;;2.07;0.80;;;;;;;;;;5044986;28;20211;-67
2022/12/24 06:08:38;;;;;;;2.23;0.70;;;;;;;;;;5032960;28;20204;-67
2022/12/24 06:11:06;;;;;;;1.47;0.50;;;;;;;;;;5030195;28;20266;-68
2022/12/24 06:13:33;;;;;;;2.07;0.40;;;;;;;;;;5034316;28;20215;-67
2022/12/24 06:16:01;;;;;;;0.70;0.70;;;;;;;;;;5030037;28;20220;-67
2022/12/24 06:18:32;;;;;;;6.80;1.10;;;;;;;;;;5043743;28;20235;-68
2022/12/24 06:21:00;;;;;;;4.87;0.77;;;;;;;;;;5041098;28;20306;-67
2022/12/24 06:23:29;;;;;;;2.60;0.50;;;;;;;;;;5034457;28;20204;-67
2022/12/24 06:25:57;;;;;;;1.60;1.03;;;;;;;;;;5037764;28;20666;-67
2022/12/24 06:28:24;;;;;;;2.80;0.70;;;;;;;;;;5043851;28;20217;-67
2022/12/24 06:30:51;;;;;;;7.83;1.13;;;;;;;;;;5034944;28;20223;-67
2022/12/24 06:33:19;;;;;;;3.50;1.00;;;;;;;;;;5034810;28;20212;-67
2022/12/24 06:35:46;;;;;;;8.50;0.73;;;;;;;;;;5033201;28;20207;-67
2022/12/24 06:38:13;;;;;;;6.23;1.03;;;;;;;;;;5041879;28;20227;-67
2022/12/24 06:40:42;;;;;;;5.30;1.13;;;;;;;;;;5037087;28;20208;-67
2022/12/24 06:43:10;;;;;;;2.00;0.60;;;;;;;;;;5035509;28;20666;-67
2022/12/24 06:45:37;;;;;;;5.83;1.10;;;;;;;;;;5046170;28;20765;-67
2022/12/24 06:48:05;;;;;;;4.10;0.90;;;;;;;;;;5042897;28;20226;-66
2022/12/24 06:50:33;;;;;;;3.77;1.00;;;;;;;;;;5038963;28;20270;-66
2022/12/24 06:53:00;;;;;;;3.37;1.10;;;;;;;;;;5031205;28;20204;-64
2022/12/24 06:55:27;;;;;;;5.57;0.73;;;;;;;;;;5039194;28;20583;-66
2022/12/24 06:57:55;;;;;;;2.67;0.80;;;;;;;;;;5029735;28;20254;-67
2022/12/24 07:00:22;;;;;;;4.10;1.20;;;;;;;;;;5038342;28;20216;-66
2022/12/24 07:02:49;;;;;;;8.47;1.53;;;;;;;;;;5042616;28;20666;-66
2022/12/24 07:05:17;;;;;;;4.20;1.07;;;;;;;;;;5033806;28;20667;-66
2022/12/24 07:07:45;;;;;;;4.60;1.20;;;;;;;;;;5036500;28;20339;-66
2022/12/24 07:10:13;;;;;;;6.47;1.47;;;;;;;;;;5033465;28;20231;-66
2022/12/24 07:12:40;;;;;;;3.13;1.17;;;;;;;;;;5042800;28;20207;-66
2022/12/24 07:15:09;;;;;;;5.67;2.13;;;;;;;;;;5043629;28;20222;-67
2022/12/24 07:17:36;;;;;;;9.60;1.90;;;;;;;;;;5035727;28;20235;-67
2022/12/24 07:20:03;;;;;;;4.10;1.63;;;;;;;;;;5032552;28;20227;-67
2022/12/24 07:22:30;;;;;;;3.57;1.10;;;;;;;;;;5037434;28;20679;-67
2022/12/24 07:24:57;;;;;;;3.73;1.20;;;;;;;;;;5039934;28;20290;-67
2022/12/24 07:27:24;;;;;;;2.33;1.10;;;;;;;;;;5043113;28;20200;-66
2022/12/24 07:29:51;;;;;;;2.47;1.10;;;;;;;;;;5040796;28;20242;-67
2022/12/24 07:32:20;;;;;;;5.13;1.30;;;;;;;;;;5038865;28;20211;-66
2022/12/24 07:34:47;;;;;;;2.17;1.07;;;;;;;;;;5047764;28;20216;-66
2022/12/24 07:37:15;;;;;;;3.30;1.53;;;;;;;;;;5040940;28;20215;-67
2022/12/24 07:39:42;;;;;;;4.27;1.53;;;;;;;;;;5036722;28;20209;-66
2022/12/24 07:42:09;;;;;;;5.47;1.40;;;;;;;;;;5037288;28;20204;-66
2022/12/24 07:44:36;;;;;;;8.80;1.30;;;;;;;;;;5043911;28;20205;-66
2022/12/24 07:47:03;;;;;;;6.20;1.30;;;;;;;;;;5034384;28;20699;-66
2022/12/24 07:49:32;;;;;;;3.37;1.13;;;;;;;;;;5040018;28;20235;-67
2022/12/24 07:51:59;;;;;;;8.93;1.47;;;;;;;;;;5030710;28;20215;-67
2022/12/24 07:54:26;;;;;;;5.67;1.23;;;;;;;;;;5045717;28;20204;-67
2022/12/24 07:56:53;;;;;;;3.60;1.13;;;;;;;;;;5041288;28;20227;-67
2022/12/24 07:59:20;;;;;;;3.03;1.27;;;;;;;;;;5035345;28;20717;-66
2022/12/24 08:01:47;;;;;;;2.83;1.17;;;;;;;;;;5037456;28;20217;-67
2022/12/24 08:04:14;;;;;;;2.90;1.20;;;;;;;;;;5040838;28;20304;-66
2022/12/24 08:06:43;;;;;;;2.73;1.23;;;;;;;;;;5039191;28;20207;-66
2022/12/24 08:09:10;;;;;;;5.03;1.30;;;;;;;;;;5042291;28;20208;-67
2022/12/24 08:11:37;;;;;;;2.83;0.87;;;;;;;;;;5043280;28;20251;-67
2022/12/24 08:14:04;;;;;;;4.37;1.03;;;;;;;;;;5030501;28;20923;-68
2022/12/24 08:16:31;;;;;;;2.63;1.13;;;;;;;;;;5032101;28;20219;-67
2022/12/24 08:18:58;;;;;;;6.97;1.00;;;;;;;;;;5030731;28;20700;-68
2022/12/24 08:21:25;;;;;;;3.53;1.30;;;;;;;;;;5039491;28;20212;-67
2022/12/24 08:23:53;;;;;;;3.67;1.13;;;;;;;;;;5049110;28;20215;-67
2022/12/24 08:26:21;;;;;;;7.60;1.73;;;;;;;;;;5034270;28;20204;-66
2022/12/24 08:28:48;;;;;;;5.43;1.30;;;;;;;;;;5042022;28;20203;-64
2022/12/24 08:31:15;;;;;;;7.50;1.47;;;;;;;;;;5034388;28;20204;-66
2022/12/24 08:33:42;;;;;;;5.67;1.23;;;;;;;;;;5043016;28;20239;-64
2022/12/24 08:36:10;;;;;;;7.27;1.10;;;;;;;;;;5044993;28;20685;-63
2022/12/24 08:38:37;;;;;;;3.70;1.43;;;;;;;;;;5049868;28;20824;-63
2022/12/24 08:41:05;;;;;;;9.07;1.93;;;;;;;;;;5048476;28;20219;-67
2022/12/24 08:43:32;;;;;;;8.63;1.80;;;;;;;;;;5042559;28;20211;-63
2022/12/24 08:46:02;;;;;;;2.47;1.17;;;;;;;;;;5036889;28;20246;-65
2022/12/24 08:48:29;;;;;;;2.93;1.30;;;;;;;;;;5039287;28;20234;-66
2022/12/24 08:50:56;;;;;;;7.07;1.40;;;;;;;;;;5039573;28;20204;-65
2022/12/24 08:53:23;;;;;;;6.77;1.63;;;;;;;;;;5033278;28;20620;-65
2022/12/24 08:55:50;;;;;;;4.10;1.07;;;;;;;;;;5034042;28;20233;-63
2022/12/24 08:58:19;;;;;;;4.90;1.23;;;;;;;;;;5034746;28;20277;-64
2022/12/24 09:00:46;;;;;;;2.20;1.23;;;;;;;;;;5029557;28;20213;-64
2022/12/24 09:03:15;;;;;;;10.23;1.40;;;;;;;;;;5032135;28;20212;-64
2022/12/24 09:05:42;;;;;;;5.27;1.47;;;;;;;;;;5030655;28;20208;-65
2022/12/24 09:08:09;;;;;;;4.07;1.00;;;;;;;;;;5040129;28;20203;-64
2022/12/24 09:10:37;;;;;;;3.83;1.07;;;;;;;;;;5037443;28;20782;-65
2022/12/24 09:13:04;;;;;;;3.10;1.17;;;;;;;;;;5036414;28;20692;-64
2022/12/24 09:15:32;;;;;;;2.47;1.03;;;;;;;;;;5049322;28;20210;-62
2022/12/24 09:17:59;;;;;;;3.63;0.90;;;;;;;;;;5039909;28;20216;-65
2022/12/24 09:20:26;;;;;;;5.30;1.93;;;;;;;;;;5048223;28;20219;-63
2022/12/24 09:22:53;;;;;;;14.50;1.90;;;;;;;;;;5041652;28;20208;-65
2022/12/24 09:25:20;;;;;;;6.47;1.80;;;;;;;;;;5047591;28;20210;-62
2022/12/24 09:27:47;;;;;;;2.93;0.90;;;;;;;;;;5043739;28;20212;-66
2022/12/24 09:30:15;;;;;;;6.67;1.47;;;;;;;;;;5031084;28;20204;-64
2022/12/24 09:32:43;;;;;;;5.77;1.53;;;;;;;;;;5030606;28;20310;-66
2022/12/24 09:35:10;;;;;;;3.67;1.47;;;;;;;;;;5039242;28;20211;-68
2022/12/24 09:37:44;;;;;;;4.90;1.50;;;;;;;;;;5031572;28;20690;-64
2022/12/24 09:40:25;;;;;;;6.93;1.57;;;;;;;;;;5030171;28;20290;-65
2022/12/24 09:42:53;;;;;;;5.37;1.37;;;;;;;;;;5038388;28;20752;-60
2022/12/24 09:45:24;;;;;;;6.97;1.13;;;;;;;;;;5046484;28;20246;-67
2022/12/24 09:47:55;;;;;;;4.63;1.40;;;;;;;;;;5029888;28;20208;-67
2022/12/24 09:50:27;;;;;;;5.10;0.97;;;;;;;;;;5035894;28;20230;-66
2022/12/24 09:52:54;;;;;;;5.60;1.13;;;;;;;;;;5034437;28;20682;-67
2022/12/24 09:55:23;;;;;;;2.50;0.80;;;;;;;;;;5046891;28;20227;-63
2022/12/24 09:57:52;;;;;;;11.27;1.47;;;;;;;;;;5032259;28;20219;-64
2022/12/24 10:00:21;;;;;;;5.57;1.33;;;;;;;;;;5031844;28;20234;-64
2022/12/24 10:02:48;;;;;;;7.60;1.27;;;;;;;;;;5043769;28;20212;-64
2022/12/24 10:05:18;;;;;;;4.00;1.43;;;;;;;;;;5032365;28;20579;-63
2022/12/24 10:07:49;;;;;;;4.87;1.33;;;;;;;;;;5034183;28;20207;-65
2022/12/24 10:10:23;;;;;;;6.33;1.23;;;;;;;;;;5043067;28;20658;-64
2022/12/24 10:12:54;;;;;;;3.93;0.97;;;;;;;;;;5044203;28;20210;-65
2022/12/24 10:15:26;;;;;;;3.80;1.20;;;;;;;;;;5031310;28;20651;-65
2022/12/24 10:18:01;;;;;;;5.53;1.33;;;;;;;;;;5032430;28;20678;-64
2022/12/24 10:20:35;;;;;;;5.43;1.43;;;;;;;;;;5029105;28;20693;-64
2022/12/24 10:23:05;;;;;;;7.13;1.52;;;;;;;;;;5037640;28;20227;-64
2022/12/24 10:25:36;;;;;;;77.38;16.80;;;;;;;;;;5029068;28;20212;-64
2022/12/24 10:28:06;;;;;;;396.05;112.57;;;;;;;;;;5039061;28;20218;-67
2022/12/24 10:30:34;;;;;;;991.17;517.13;;;;;;;;;;5035829;28;20211;-65
2022/12/24 10:33:01;;;;;;;197.25;53.47;;;;;;;;;;5029560;28;20208;-67
2022/12/24 10:35:29;;;;;;;264.63;69.00;;;;;;;;;;5030901;28;20215;-67
2022/12/24 10:37:58;;;;;;;77.25;19.58;;;;;;;;;;5036470;28;21138;-65
2022/12/24 10:40:29;;;;;;;59.13;13.60;;;;;;;;;;5035454;28;20717;-65
2022/12/24 10:42:56;;;;;;;20.40;7.68;;;;;;;;;;5031179;28;20208;-67
2022/12/24 10:45:24;;;;;;;15.93;4.32;;;;;;;;;;5033438;28;20228;-67
2022/12/24 10:47:55;;;;;;;8.98;2.42;;;;;;;;;;5048094;28;20682;-66
2022/12/24 10:50:26;;;;;;;11.52;3.20;;;;;;;;;;5034334;28;20199;-67
2022/12/24 10:52:56;;;;;;;13.55;3.78;;;;;;;;;;5035921;28;20213;-68
2022/12/24 10:55:26;;;;;;;10.20;3.33;;;;;;;;;;5044466;28;20698;-67
2022/12/24 10:58:01;;;;;;;7.25;1.13;;;;;;;;;;5040159;28;20298;-70
2022/12/24 11:00:29;;;;;;;8.23;1.13;;;;;;;;;;5044278;28;20228;-70
2022/12/24 11:03:20;;;;;;;1.88;0.75;;;;;;;;;;5048000;28;20300;-70
2022/12/24 11:05:59;;;;;;;1.88;0.90;;;;;;;;;;5034746;28;20636;-66
2022/12/24 11:08:26;;;;;;;3.70;1.30;;;;;;;;;;5040836;28;20219;-66
2022/12/24 11:10:56;;;;;;;2.47;1.17;;;;;;;;;;5032557;28;20824;-67
2022/12/24 11:13:25;;;;;;;5.72;1.10;;;;;;;;;;5035811;28;20550;-65
2022/12/24 11:15:59;;;;;;;6.63;1.35;;;;;;;;;;5034265;28;20293;-66
2022/12/24 11:18:26;;;;;;;3.15;1.08;;;;;;;;;;5045641;28;20208;-66
2022/12/24 11:20:53;;;;;;;5.45;1.25;;;;;;;;;;5037074;28;20329;-66
2022/12/24 11:23:22;;;;;;;3.50;0.80;;;;;;;;;;5042611;28;20209;-66
2022/12/24 11:25:50;;;;;;;9.15;1.30;;;;;;;;;;5049553;28;20214;-66
2022/12/24 11:28:22;;;;;;;3.72;0.98;;;;;;;;;;5049954;28;20219;-66
2022/12/24 11:30:56;;;;;;;3.70;0.95;;;;;;;;;;5031203;28;20223;-66
2022/12/24 11:33:23;;;;;;;5.23;0.93;;;;;;;;;;5034870;28;20222;-66
2022/12/24 11:35:53;;;;;;;7.70;1.20;;;;;;;;;;5032612;28;20219;-66
2022/12/24 11:38:21;;;;;;;3.63;0.85;;;;;;;;;;5038463;28;20215;-66
2022/12/24 11:40:49;;;;;;;2.88;1.05;;;;;;;;;;5039831;28;20322;-66
2022/12/24 11:43:18;;;;;;;4.77;0.97;;;;;;;;;;5047770;28;20215;-66
2022/12/24 11:45:51;;;;;;;3.60;0.70;;;;;;;;;;5048988;28;20223;-66
2022/12/24 11:48:25;;;;;;;10.67;1.63;;;;;;;;;;5042199;28;20306;-66
2022/12/24 11:50:56;;;;;;;3.10;1.17;;;;;;;;;;5043036;28;20273;-66
2022/12/24 11:53:26;;;;;;;9.75;2.00;;;;;;;;;;5031670;28;20212;-65
2022/12/24 11:55:56;;;;;;;4.88;1.50;;;;;;;;;;5032779;28;20766;-64
2022/12/24 11:58:27;;;;;;;5.95;1.42;;;;;;;;;;5034607;28;20212;-64
2022/12/24 12:00:59;;;;;;;3.00;1.25;;;;;;;;;;5033036;28;20714;-66
2022/12/24 12:03:30;;;;;;;7.22;1.10;;;;;;;;;;5043183;28;20217;-69
2022/12/24 12:05:59;;;;;;;7.28;1.50;;;;;;;;;;5035017;28;20204;-61
2022/12/24 12:08:27;;;;;;;5.87;1.27;;;;;;;;;;5038145;28;20216;-62
2022/12/24 12:10:55;;;;;;;7.22;1.60;;;;;;;;;;5050613;28;20799;-62
2022/12/24 12:13:24;;;;;;;4.53;1.70;;;;;;;;;;5040604;28;20235;-61
2022/12/24 12:15:53;;;;;;;9.15;1.30;;;;;;;;;;5030473;28;20690;-61
2022/12/24 12:18:24;;;;;;;8.70;1.45;;;;;;;;;;5036459;28;20212;-62
2022/12/24 12:20:53;;;;;;;5.32;1.23;;;;;;;;;;5031997;28;20758;-61
2022/12/24 12:23:22;;;;;;;5.55;1.75;;;;;;;;;;5032793;28;20224;-61
2022/12/24 12:25:52;;;;;;;2.92;1.38;;;;;;;;;;5029985;28;20208;-61
2022/12/24 12:28:21;;;;;;;4.27;1.00;;;;;;;;;;5039266;28;20257;-62
2022/12/24 12:30:54;;;;;;;5.72;1.60;;;;;;;;;;5032621;28;20565;-59
2022/12/24 12:33:27;;;;;;;4.20;0.90;;;;;;;;;;5041285;28;20212;-68
2022/12/24 12:35:55;;;;;;;5.50;1.27;;;;;;;;;;5040855;28;20262;-61
2022/12/24 12:38:23;;;;;;;6.00;1.10;;;;;;;;;;5033668;28;20221;-62
2022/12/24 12:41:00;;;;;;;5.78;1.33;;;;;;;;;;5028109;28;20238;-61
2022/12/24 12:43:36;;;;;;;4.60;1.37;;;;;;;;;;5028517;28;20737;-63
2022/12/24 12:46:06;;;;;;;1.97;1.20;;;;;;;;;;5042187;28;20583;-62
2022/12/24 12:48:42;;;;;;;5.27;1.17;;;;;;;;;;5031935;28;20216;-62
2022/12/24 12:51:13;;;;;;;5.33;1.43;;;;;;;;;;5049470;28;20204;-62
2022/12/24 12:53:45;;;;;;;2.47;0.90;;;;;;;;;;5035011;28;20215;-62
2022/12/24 12:56:19;;;;;;;3.13;1.23;;;;;;;;;;5038190;28;20236;-62
2022/12/24 12:58:50;;;;;;;5.03;1.63;;;;;;;;;;5038001;28;20611;-70
2022/12/24 13:01:20;;;;;;;2.40;1.02;;;;;;;;;;5032428;28;20232;-62
2022/12/24 13:03:59;;;;;;;6.22;1.10;;;;;;;;;;5035866;28;20667;-61
2022/12/24 13:06:46;;;;;;;4.70;0.88;;;;;;;;;;5039709;28;20314;-62
2022/12/24 13:09:25;;;;;;;5.60;1.20;;;;;;;;;;5029621;28;20208;-62
2022/12/24 13:12:04;;;;;;;5.63;1.15;;;;;;;;;;5034547;28;20239;-62
2022/12/24 13:14:48;;;;;;;2.83;0.70;;;;;;;;;;5029027;28;20212;-61
2022/12/24 13:17:36;;;;;;;4.33;1.10;;;;;;;;;;5039490;28;20209;-62
2022/12/24 13:20:18;;;;;;;3.72;1.35;;;;;;;;;;5022764;28;20228;-61
2022/12/24 13:22:49;;;;;;;6.70;1.37;;;;;;;;;;5033732;28;20658;-61
2022/12/24 13:25:20;;;;;;;3.77;1.03;;;;;;;;;;5045250;28;20235;-61
2022/12/24 13:27:47;;;;;;;4.20;1.20;;;;;;;;;;5029002;28;20220;-62
2022/12/24 13:30:29;;;;;;;7.33;1.60;;;;;;;;;;5035637;28;20218;-62
2022/12/24 13:32:56;;;;;;;4.15;1.25;;;;;;;;;;5035397;28;20800;-62
2022/12/24 13:35:29;;;;;;;9.30;1.53;;;;;;;;;;5033377;28;20219;-61
2022/12/24 13:38:16;;;;;;;6.00;1.50;;;;;;;;;;5030977;28;20270;-61
2022/12/24 13:40:45;;;;;;;2.43;1.30;;;;;;;;;;5032771;28;20231;-62
2022/12/24 13:43:12;;;;;;;7.90;1.10;;;;;;;;;;5037590;28;20216;-61
2022/12/24 13:45:43;;;;;;;5.97;1.42;;;;;;;;;;5029732;28;20524;-62
2022/12/24 13:48:18;;;;;;;3.40;1.23;;;;;;;;;;5043467;28;20295;-61
2022/12/24 13:50:47;;;;;;;7.10;1.00;;;;;;;;;;5038467;28;20292;-62
2022/12/24 13:53:21;;;;;;;3.97;0.85;;;;;;;;;;5033206;28;20686;-62
2022/12/24 13:55:51;;;;;;;6.40;1.27;;;;;;;;;;5027582;28;20332;-62
2022/12/24 13:58:20;;;;;;;5.03;1.63;;;;;;;;;;5033523;28;20212;-62
2022/12/24 14:00:54;;;;;;;2.80;1.43;;;;;;;;;;5028405;28;20331;-64
2022/12/24 14:03:24;;;;;;;10.23;1.35;;;;;;;;;;5034017;28;20298;-62
2022/12/24 14:05:52;;;;;;;1.83;0.97;;;;;;;;;;5028829;28;20573;-62
2022/12/24 14:08:27;;;;;;;4.03;1.10;;;;;;;;;;5025463;28;20212;-61
2022/12/24 14:11:00;;;;;;;9.60;1.10;;;;;;;;;;5027867;28;20248;-62
2022/12/24 14:13:46;;;;;;;8.83;0.93;;;;;;;;;;5044850;28;20325;-62
2022/12/24 14:16:16;;;;;;;5.60;2.00;;;;;;;;;;5048317;28;20239;-63
2022/12/24 14:18:44;;;;;;;4.53;1.23;;;;;;;;;;5025951;28;20254;-64
2022/12/24 14:21:16;;;;;;;5.80;1.50;;;;;;;;;;5027593;28;20232;-63
2022/12/24 14:23:46;;;;;;;4.67;1.43;;;;;;;;;;5035566;28;20228;-62
2022/12/24 14:26:16;;;;;;;3.20;1.27;;;;;;;;;;5038896;28;20203;-62
2022/12/24 14:28:44;;;;;;;4.37;2.00;;;;;;;;;;5043577;28;20239;-61
2022/12/24 14:31:21;;;;;;;3.93;1.43;;;;;;;;;;5035491;28;20645;-71
2022/12/24 14:33:48;;;;;;;7.93;1.43;;;;;;;;;;5029757;28;20230;-62
2022/12/24 14:36:16;;;;;;;4.97;1.37;;;;;;;;;;5047952;28;20217;-62
2022/12/24 14:38:44;;;;;;;7.33;1.43;;;;;;;;;;5039190;28;20231;-62
2022/12/24 14:41:19;;;;;;;3.87;1.63;;;;;;;;;;5033151;28;20236;-62
2022/12/24 14:43:51;;;;;;;10.47;2.03;;;;;;;;;;5028024;28;20658;-62
2022/12/24 14:46:23;;;;;;;5.33;1.53;;;;;;;;;;5027000;28;20224;-62
2022/12/24 14:48:52;;;;;;;7.07;1.53;;;;;;;;;;5031934;28;20240;-62
2022/12/24 14:51:22;;;;;;;5.47;1.63;;;;;;;;;;5027643;28;20216;-62
2022/12/24 14:53:59;;;;;;;4.70;1.63;;;;;;;;;;5027547;28;20661;-68
2022/12/24 14:56:27;;;;;;;3.77;1.33;;;;;;;;;;5026871;28;20255;-62
2022/12/24 14:58:56;;;;;;;8.07;1.77;;;;;;;;;;5027808;28;20208;-62
2022/12/24 15:01:24;;;;;;;3.97;1.90;;;;;;;;;;5027820;28;20228;-62
2022/12/24 15:04:01;;;;;;;8.63;1.40;;;;;;;;;;5027326;28;20267;-62